createdAt,value
2023-04-24T00:00:55.949Z,7.72
2023-04-24T00:01:59.490Z,8.60
2023-04-24T00:03:01.906Z,7.70
2023-04-24T00:04:04.870Z,7.53
2023-04-24T00:05:08.686Z,9.20
2023-04-24T00:06:10.921Z,7.15
2023-04-24T00:07:14.045Z,13.70
2023-04-24T00:08:17.766Z,7.20
2023-04-24T00:09:19.947Z,8.10
2023-04-24T00:10:22.550Z,8.45
2023-04-24T00:11:24.788Z,7.53
2023-04-24T00:12:27.863Z,8.82
2023-04-24T00:13:30.132Z,8.10
2023-04-24T00:14:32.780Z,13.38
2023-04-24T00:15:35.338Z,6.30
2023-04-24T00:16:37.532Z,7.50
2023-04-24T00:17:39.922Z,9.90
2023-04-24T00:18:42.584Z,5.30
2023-04-24T00:19:45.064Z,4.57
2023-04-24T00:20:47.665Z,6.43
2023-04-24T00:21:53.546Z,7.47
2023-04-24T00:22:55.845Z,5.75
2023-04-24T00:23:59.708Z,10.60
2023-04-24T00:25:01.852Z,8.63
2023-04-24T00:26:04.091Z,8.45
2023-04-24T00:27:06.374Z,5.93
2023-04-24T00:28:08.535Z,10.10
2023-04-24T00:29:10.712Z,6.68
2023-04-24T00:30:13.106Z,6.75
2023-04-24T00:31:15.381Z,7.43
2023-04-24T00:32:19.005Z,4.32
2023-04-24T00:33:21.678Z,6.40
2023-04-24T00:34:24.072Z,5.45
2023-04-24T00:35:26.256Z,8.70
2023-04-24T00:36:28.502Z,5.63
2023-04-24T00:37:30.796Z,7.78
2023-04-24T00:38:32.951Z,6.90
2023-04-24T00:39:36.524Z,4.63
2023-04-24T00:40:39.148Z,6.18
2023-04-24T00:41:41.374Z,10.65
2023-04-24T00:42:44.924Z,5.65
2023-04-24T00:43:47.236Z,4.03
2023-04-24T00:44:49.998Z,7.35
2023-04-24T00:45:52.317Z,7.85
2023-04-24T00:46:55.934Z,6.82
2023-04-24T00:47:58.592Z,5.70
2023-04-24T00:49:01.101Z,4.93
2023-04-24T00:50:04.048Z,8.00
2023-04-24T00:51:06.423Z,5.30
2023-04-24T00:52:09.912Z,5.88
2023-04-24T00:53:12.268Z,7.88
2023-04-24T00:54:14.954Z,7.80
2023-04-24T00:55:18.894Z,5.18
2023-04-24T00:56:21.426Z,7.97
2023-04-24T00:57:24.748Z,5.88
2023-04-24T00:58:27.846Z,6.07
2023-04-24T00:59:30.126Z,8.35
2023-04-24T01:00:32.797Z,4.45
2023-04-24T01:01:35.243Z,4.70
2023-04-24T01:02:38.498Z,7.30
2023-04-24T01:03:41.852Z,7.22
2023-04-24T01:04:44.647Z,9.07
2023-04-24T01:05:47.244Z,6.18
2023-04-24T01:06:53.376Z,7.57
2023-04-24T01:07:56.192Z,9.05
2023-04-24T01:08:59.725Z,6.70
2023-04-24T01:10:02.097Z,4.38
2023-04-24T01:11:06.668Z,4.47
2023-04-24T01:12:09.121Z,5.55
2023-04-24T01:13:12.202Z,6.35
2023-04-24T01:14:14.646Z,12.45
2023-04-24T01:15:16.826Z,13.65
2023-04-24T01:16:22.089Z,5.85
2023-04-24T01:17:24.434Z,4.13
2023-04-24T01:18:27.905Z,9.27
2023-04-24T01:19:30.229Z,4.43
2023-04-24T01:20:33.454Z,5.03
2023-04-24T01:21:38.268Z,6.88
2023-04-24T01:22:42.392Z,5.20
2023-04-24T01:23:44.836Z,6.63
2023-04-24T01:24:47.028Z,5.80
2023-04-24T01:25:50.034Z,7.72
2023-04-24T01:26:52.681Z,8.77
2023-04-24T01:27:54.916Z,5.38
2023-04-24T01:28:57.620Z,6.75
2023-04-24T01:30:00.101Z,7.93
2023-04-24T01:31:02.556Z,6.82
2023-04-24T01:33:13.795Z,5.65
2023-04-24T01:34:16.454Z,6.40
2023-04-24T01:35:18.748Z,5.50
2023-04-24T01:36:23.552Z,7.05
2023-04-24T01:37:27.989Z,4.75
2023-04-24T01:38:31.972Z,5.78
2023-04-24T01:39:34.578Z,7.63
2023-04-24T01:40:37.038Z,4.82
2023-04-24T01:41:39.330Z,10.55
2023-04-24T01:42:42.868Z,8.82
2023-04-24T01:43:45.306Z,6.60
2023-04-24T01:44:48.047Z,4.90
2023-04-24T01:45:50.345Z,4.47
2023-04-24T01:46:55.129Z,6.82
2023-04-24T01:47:58.285Z,8.82
2023-04-24T01:49:01.720Z,4.60
2023-04-24T01:50:05.308Z,6.07
2023-04-24T01:51:07.609Z,6.15
2023-04-24T01:52:09.895Z,5.15
2023-04-24T01:53:12.575Z,6.88
2023-04-24T01:54:16.462Z,7.00
2023-04-24T01:55:19.009Z,5.10
2023-04-24T01:56:22.787Z,7.18
2023-04-24T01:57:25.848Z,5.32
2023-04-24T01:58:28.649Z,6.35
2023-04-24T01:59:32.058Z,5.75
2023-04-24T02:00:34.380Z,6.65
2023-04-24T02:01:37.372Z,4.03
2023-04-24T02:02:41.387Z,6.35
2023-04-24T02:03:44.054Z,5.88
2023-04-24T02:04:46.394Z,5.25
2023-04-24T02:05:48.604Z,4.85
2023-04-24T02:06:50.903Z,6.95
2023-04-24T02:07:53.110Z,5.85
2023-04-24T02:08:55.541Z,6.82
2023-04-24T02:09:59.342Z,8.18
2023-04-24T02:11:03.019Z,6.47
2023-04-24T02:12:05.404Z,7.13
2023-04-24T02:13:07.606Z,10.25
2023-04-24T02:14:09.906Z,7.50
2023-04-24T02:15:13.256Z,4.68
2023-04-24T02:16:15.533Z,3.30
2023-04-24T02:17:17.906Z,5.32
2023-04-24T02:18:20.195Z,7.70
2023-04-24T02:19:22.399Z,7.88
2023-04-24T02:20:25.003Z,7.47
2023-04-24T02:21:28.495Z,7.38
2023-04-24T02:22:30.736Z,5.60
2023-04-24T02:23:32.967Z,8.20
2023-04-24T02:24:35.263Z,5.53
2023-04-24T02:25:38.880Z,8.55
2023-04-24T02:26:41.192Z,7.72
2023-04-24T02:27:43.506Z,8.95
2023-04-24T02:28:45.729Z,5.70
2023-04-24T02:29:47.932Z,7.28
2023-04-24T02:30:50.925Z,6.47
2023-04-24T02:31:53.133Z,6.65
2023-04-24T02:32:55.360Z,6.45
2023-04-24T02:33:57.575Z,8.40
2023-04-24T02:35:00.485Z,4.88
2023-04-24T02:36:02.836Z,6.00
2023-04-24T02:37:05.118Z,6.60
2023-04-24T02:38:07.400Z,6.03
2023-04-24T02:39:09.616Z,7.95
2023-04-24T02:40:12.122Z,6.57
2023-04-24T02:41:15.841Z,3.65
2023-04-24T02:42:18.038Z,4.50
2023-04-24T02:43:20.344Z,4.20
2023-04-24T02:44:23.687Z,6.22
2023-04-24T02:45:26.036Z,4.88
2023-04-24T02:46:28.373Z,5.13
2023-04-24T02:47:30.711Z,4.82
2023-04-24T02:48:33.059Z,4.43
2023-04-24T02:49:35.273Z,8.18
2023-04-24T02:50:37.468Z,9.70
2023-04-24T02:51:42.210Z,4.13
2023-04-24T02:52:44.495Z,5.97
2023-04-24T02:53:46.822Z,6.95
2023-04-24T02:54:49.068Z,9.43
2023-04-24T02:55:51.323Z,4.38
2023-04-24T02:56:54.951Z,5.97
2023-04-24T02:57:57.239Z,7.07
2023-04-24T02:58:59.437Z,6.60
2023-04-24T03:00:01.696Z,4.38
2023-04-24T03:01:03.919Z,5.40
2023-04-24T03:02:06.825Z,4.28
2023-04-24T03:03:09.294Z,7.75
2023-04-24T03:04:11.908Z,8.10
2023-04-24T03:05:14.290Z,6.28
2023-04-24T03:06:16.622Z,7.95
2023-04-24T03:07:21.826Z,6.00
2023-04-24T03:08:24.098Z,4.50
2023-04-24T03:09:26.334Z,3.88
2023-04-24T03:10:28.563Z,6.43
2023-04-24T03:11:30.790Z,6.93
2023-04-24T03:12:34.443Z,6.07
2023-04-24T03:13:36.850Z,5.18
2023-04-24T03:14:39.044Z,5.25
2023-04-24T03:15:41.308Z,6.68
2023-04-24T03:16:43.479Z,5.65
2023-04-24T03:17:45.707Z,6.47
2023-04-24T03:18:47.889Z,6.80
2023-04-24T03:19:50.077Z,6.85
2023-04-24T03:20:52.412Z,3.75
2023-04-24T03:21:54.638Z,7.25
2023-04-24T03:22:58.167Z,10.40
2023-04-24T03:24:00.286Z,9.73
2023-04-24T03:25:02.856Z,12.02
2023-04-24T03:26:05.280Z,14.70
2023-04-24T03:27:07.981Z,9.20
2023-04-24T03:28:11.827Z,9.05
2023-04-24T03:29:14.260Z,7.63
2023-04-24T03:30:16.488Z,8.82
2023-04-24T03:31:20.159Z,5.85
2023-04-24T03:32:23.526Z,6.95
2023-04-24T03:33:25.920Z,6.50
2023-04-24T03:34:28.086Z,5.82
2023-04-24T03:35:30.324Z,13.32
2023-04-24T03:36:32.666Z,5.15
2023-04-24T03:37:34.902Z,6.72
2023-04-24T03:38:37.083Z,6.57
2023-04-24T03:39:39.219Z,3.70
2023-04-24T03:40:41.425Z,6.78
2023-04-24T03:41:43.641Z,7.28
2023-04-24T03:42:45.796Z,7.22
2023-04-24T03:43:49.553Z,10.00
2023-04-24T03:44:51.744Z,7.88
2023-04-24T03:45:54.026Z,6.10
2023-04-24T03:46:56.348Z,5.95
2023-04-24T03:47:58.613Z,8.32
2023-04-24T03:49:01.467Z,7.72
2023-04-24T03:50:04.167Z,8.32
2023-04-24T03:51:06.466Z,11.02
2023-04-24T03:52:08.703Z,4.45
2023-04-24T03:53:11.282Z,5.03
2023-04-24T03:54:13.554Z,7.90
2023-04-24T03:55:15.879Z,7.78
2023-04-24T03:56:18.058Z,4.57
2023-04-24T03:57:20.372Z,6.97
2023-04-24T03:58:22.761Z,9.57
2023-04-24T03:59:26.397Z,6.20
2023-04-24T04:00:28.930Z,5.47
2023-04-24T04:01:31.900Z,6.63
2023-04-24T04:02:34.309Z,5.90
2023-04-24T04:03:36.848Z,9.07
2023-04-24T04:04:39.444Z,5.35
2023-04-24T04:05:42.146Z,8.35
2023-04-24T04:06:45.252Z,5.88
2023-04-24T04:07:47.549Z,6.30
2023-04-24T04:08:49.815Z,8.23
2023-04-24T04:09:52.054Z,9.60
2023-04-24T04:10:54.263Z,10.02
2023-04-24T04:11:56.431Z,10.13
2023-04-24T04:12:58.649Z,5.50
2023-04-24T04:14:00.917Z,8.32
2023-04-24T04:15:06.761Z,3.92
2023-04-24T04:16:10.157Z,11.13
2023-04-24T04:17:12.446Z,9.02
2023-04-24T04:18:14.844Z,8.82
2023-04-24T04:19:17.181Z,7.20
2023-04-24T04:20:19.367Z,9.73
2023-04-24T04:21:21.715Z,7.07
2023-04-24T04:22:23.955Z,6.60
2023-04-24T04:23:26.938Z,12.90
2023-04-24T04:24:29.626Z,9.18
2023-04-24T04:25:31.800Z,6.95
2023-04-24T04:26:34.023Z,7.05
2023-04-24T04:27:36.335Z,9.00
2023-04-24T04:28:42.579Z,10.80
2023-04-24T04:29:45.087Z,11.68
2023-04-24T04:30:48.872Z,8.43
2023-04-24T04:31:51.139Z,8.40
2023-04-24T04:32:53.428Z,5.63
2023-04-24T04:33:55.673Z,8.25
2023-04-24T04:34:57.846Z,12.00
2023-04-24T04:36:01.845Z,4.93
2023-04-24T04:37:05.413Z,8.82
2023-04-24T04:38:09.443Z,6.85
2023-04-24T04:39:11.614Z,13.20
2023-04-24T04:40:13.815Z,13.13
2023-04-24T04:41:17.916Z,13.07
2023-04-24T04:42:20.141Z,7.85
2023-04-24T04:43:22.460Z,7.90
2023-04-24T04:44:24.689Z,7.80
2023-04-24T04:45:28.703Z,7.65
2023-04-24T04:46:34.281Z,8.35
2023-04-24T04:47:36.681Z,9.30
2023-04-24T04:48:39.137Z,5.60
2023-04-24T04:49:42.435Z,7.20
2023-04-24T04:50:44.886Z,9.60
2023-04-24T04:51:48.116Z,9.80
2023-04-24T04:52:50.504Z,7.72
2023-04-24T04:53:52.804Z,8.25
2023-04-24T04:54:54.999Z,8.15
2023-04-24T04:55:57.417Z,10.02
2023-04-24T04:57:00.070Z,11.55
2023-04-24T04:58:02.251Z,6.22
2023-04-24T04:59:04.381Z,7.07
2023-04-24T05:00:08.545Z,8.85
2023-04-24T05:01:11.262Z,10.40
2023-04-24T05:02:17.466Z,10.18
2023-04-24T05:03:21.586Z,9.52
2023-04-24T05:04:24.248Z,9.80
2023-04-24T05:05:26.541Z,6.88
2023-04-24T05:06:28.736Z,9.35
2023-04-24T05:07:30.931Z,6.68
2023-04-24T05:08:33.148Z,9.63
2023-04-24T05:09:35.363Z,9.65
2023-04-24T05:10:38.026Z,12.15
2023-04-24T05:11:40.213Z,8.35
2023-04-24T05:12:44.211Z,6.97
2023-04-24T05:13:47.899Z,8.52
2023-04-24T05:14:50.145Z,7.10
2023-04-24T05:15:52.589Z,7.25
2023-04-24T05:16:54.812Z,10.13
2023-04-24T05:17:58.623Z,7.38
2023-04-24T05:19:01.097Z,12.25
2023-04-24T05:20:06.375Z,11.23
2023-04-24T05:21:08.685Z,16.17
2023-04-24T05:22:11.501Z,11.48
2023-04-24T05:23:14.130Z,8.85
2023-04-24T05:24:16.396Z,10.88
2023-04-24T05:25:18.649Z,8.90
2023-04-24T05:26:20.833Z,10.55
2023-04-24T05:27:23.023Z,11.07
2023-04-24T05:28:29.405Z,9.30
2023-04-24T05:29:32.719Z,11.50
2023-04-24T05:30:35.017Z,10.00
2023-04-24T05:31:37.214Z,11.55
2023-04-24T05:32:39.534Z,7.88
2023-04-24T05:33:43.360Z,11.38
2023-04-24T05:34:45.556Z,6.97
2023-04-24T05:35:47.950Z,8.93
2023-04-24T05:36:51.708Z,10.82
2023-04-24T05:37:53.938Z,9.15
2023-04-24T05:38:56.604Z,11.82
2023-04-24T05:39:58.905Z,10.25
2023-04-24T05:41:01.445Z,6.72
2023-04-24T05:42:05.545Z,8.80
2023-04-24T05:43:07.745Z,10.80
2023-04-24T05:44:10.017Z,16.10
2023-04-24T05:45:17.451Z,7.32
2023-04-24T05:46:20.101Z,8.20
2023-04-24T05:47:23.147Z,9.57
2023-04-24T05:48:25.563Z,6.70
2023-04-24T05:49:29.187Z,8.68
2023-04-24T05:50:31.400Z,8.30
2023-04-24T05:51:33.588Z,13.88
2023-04-24T05:52:35.838Z,14.45
2023-04-24T05:53:38.077Z,10.68
2023-04-24T05:54:40.368Z,7.65
2023-04-24T05:55:42.829Z,5.70
2023-04-24T05:56:45.123Z,5.07
2023-04-24T05:57:48.292Z,10.63
2023-04-24T05:58:56.577Z,11.15
2023-04-24T05:59:59.347Z,6.50
2023-04-24T06:01:12.496Z,8.48
2023-04-24T06:02:22.424Z,7.13
2023-04-24T06:03:25.145Z,12.55
2023-04-24T06:04:35.558Z,7.30
2023-04-24T06:05:49.430Z,10.38
2023-04-24T06:07:00.262Z,8.52
2023-04-24T06:08:08.501Z,10.70
2023-04-24T06:09:16.473Z,8.88
2023-04-24T06:10:23.136Z,7.70
2023-04-24T06:11:30.491Z,9.02
2023-04-24T06:12:36.017Z,7.72
2023-04-24T06:13:50.979Z,8.32
2023-04-24T06:15:13.335Z,7.75
2023-04-24T06:16:31.926Z,12.13
2023-04-24T06:17:41.072Z,10.98
2023-04-24T06:18:57.158Z,12.07
2023-04-24T06:21:42.177Z,15.32
2023-04-24T06:23:10.553Z,11.93
2023-04-24T06:24:23.208Z,17.10
2023-04-24T06:25:43.372Z,10.32
2023-04-24T06:26:52.154Z,12.80
2023-04-24T06:28:00.262Z,12.30
2023-04-24T06:29:10.924Z,11.40
2023-04-24T06:30:34.966Z,9.20
2023-04-24T06:31:47.843Z,11.48
2023-04-24T06:33:22.318Z,9.85
2023-04-24T06:34:32.576Z,15.35
2023-04-24T06:36:50.348Z,8.07
2023-04-24T06:38:01.955Z,7.38
2023-04-24T06:39:07.338Z,10.95
2023-04-24T06:40:18.300Z,6.95
2023-04-24T06:44:29.606Z,11.20
2023-04-24T06:45:37.728Z,13.07
2023-04-24T06:46:54.037Z,10.13
2023-04-24T06:48:08.250Z,10.48
2023-04-24T06:51:01.245Z,9.23
2023-04-24T06:52:50.354Z,9.15
2023-04-24T06:54:03.115Z,13.82
2023-04-24T06:55:16.665Z,16.02
2023-04-24T06:56:35.046Z,12.95
2023-04-24T06:57:45.944Z,13.15
2023-04-24T06:59:10.477Z,12.30
2023-04-24T07:00:28.354Z,15.35
2023-04-24T07:05:41.917Z,19.40
2023-04-24T07:06:47.411Z,14.20
2023-04-24T07:08:05.081Z,12.88
2023-04-24T07:09:20.021Z,11.75
2023-04-24T07:10:44.785Z,12.02
2023-04-24T07:12:14.867Z,9.73
2023-04-24T07:13:50.632Z,14.75
2023-04-24T07:15:11.778Z,8.18
2023-04-24T07:16:31.221Z,9.20
2023-04-24T07:19:24.610Z,14.20
2023-04-24T07:20:29.600Z,10.95
2023-04-24T07:21:56.320Z,15.43
2023-04-24T07:23:15.949Z,10.07
2023-04-24T07:24:26.818Z,10.40
2023-04-24T07:25:42.167Z,13.70
2023-04-24T07:26:50.463Z,8.30
2023-04-24T07:28:04.160Z,11.02
2023-04-24T07:29:16.977Z,17.17
2023-04-24T07:30:25.300Z,14.40
2023-04-24T07:31:38.041Z,7.53
2023-04-24T07:32:40.342Z,11.57
2023-04-24T07:33:42.753Z,9.88
2023-04-24T07:34:44.906Z,14.38
2023-04-24T07:35:47.576Z,18.17
2023-04-24T07:36:51.333Z,9.10
2023-04-24T07:37:54.361Z,10.82
2023-04-24T07:38:57.728Z,11.65
2023-04-24T07:39:59.861Z,12.85
2023-04-24T07:41:02.187Z,12.50
2023-04-24T07:42:04.544Z,15.88
2023-04-24T07:43:06.709Z,13.75
2023-04-24T07:44:09.128Z,12.57
2023-04-24T07:45:11.304Z,11.23
2023-04-24T07:46:13.490Z,13.45
2023-04-24T07:47:18.459Z,13.93
2023-04-24T07:48:22.527Z,19.42
2023-04-24T07:49:24.751Z,12.45
2023-04-24T07:50:26.996Z,11.40
2023-04-24T07:51:29.282Z,12.80
2023-04-24T07:52:32.843Z,13.13
2023-04-24T07:53:35.021Z,13.38
2023-04-24T07:54:38.621Z,13.80
2023-04-24T07:55:40.838Z,14.32
2023-04-24T07:56:44.284Z,22.50
2023-04-24T07:57:46.488Z,19.77
2023-04-24T07:58:48.635Z,17.67
2023-04-24T07:59:50.881Z,12.10
2023-04-24T08:00:52.989Z,16.08
2023-04-24T08:01:55.523Z,13.75
2023-04-24T08:02:58.021Z,17.23
2023-04-24T08:04:01.073Z,16.63
2023-04-24T08:05:04.726Z,13.30
2023-04-24T08:06:07.366Z,11.25
2023-04-24T08:07:09.617Z,12.15
2023-04-24T08:08:13.138Z,16.27
2023-04-24T08:09:15.390Z,18.08
2023-04-24T08:10:17.568Z,10.35
2023-04-24T08:11:19.698Z,16.15
2023-04-24T08:12:21.817Z,9.43
2023-04-24T08:13:24.224Z,14.52
2023-04-24T08:14:26.376Z,35.15
2023-04-24T08:15:29.104Z,30.13
2023-04-24T08:16:31.571Z,17.13
2023-04-24T08:17:34.471Z,9.73
2023-04-24T08:18:37.099Z,16.05
2023-04-24T08:19:43.778Z,17.08
2023-04-24T08:20:46.791Z,16.17
2023-04-24T08:21:48.946Z,18.65
2023-04-24T08:22:51.109Z,18.40
2023-04-24T08:23:54.598Z,15.05
2023-04-24T08:24:58.049Z,16.20
2023-04-24T08:26:00.204Z,11.75
2023-04-24T08:27:02.425Z,7.55
2023-04-24T08:28:06.796Z,9.95
2023-04-24T08:29:09.070Z,15.30
2023-04-24T08:30:11.939Z,11.07
2023-04-24T08:31:14.171Z,12.63
2023-04-24T08:32:16.392Z,8.20
2023-04-24T08:33:18.480Z,22.45
2023-04-24T08:34:21.029Z,14.43
2023-04-24T08:35:24.005Z,11.82
2023-04-24T08:36:36.049Z,21.42
2023-04-24T08:37:46.260Z,13.45
2023-04-24T08:38:48.580Z,13.02
2023-04-24T08:39:52.321Z,19.65
2023-04-24T08:40:54.672Z,21.00
2023-04-24T08:41:57.083Z,16.38
2023-04-24T08:43:00.406Z,14.75
2023-04-24T08:44:03.565Z,12.07
2023-04-24T08:45:07.333Z,15.48
2023-04-24T08:46:12.354Z,18.02
2023-04-24T08:47:16.420Z,15.30
2023-04-24T08:48:29.596Z,13.85
2023-04-24T08:49:33.143Z,20.85
2023-04-24T08:50:36.016Z,12.10
2023-04-24T08:51:39.046Z,18.67
2023-04-24T08:52:42.883Z,11.50
2023-04-24T08:53:46.397Z,18.20
2023-04-24T08:55:19.046Z,11.40
2023-04-24T08:56:24.582Z,14.35
2023-04-24T08:57:27.988Z,11.38
2023-04-24T08:58:31.766Z,18.85
2023-04-24T08:59:35.129Z,16.48
2023-04-24T09:00:39.835Z,22.63
2023-04-24T09:01:42.651Z,18.13
2023-04-24T09:02:46.578Z,19.02
2023-04-24T09:03:50.969Z,14.02
2023-04-24T09:04:55.197Z,17.00
2023-04-24T09:05:59.385Z,17.75
2023-04-24T09:07:01.969Z,23.80
2023-04-24T09:08:06.302Z,26.85
2023-04-24T09:09:09.533Z,20.02
2023-04-24T09:10:13.928Z,11.23
2023-04-24T09:11:16.549Z,16.85
2023-04-24T09:12:19.039Z,20.13
2023-04-24T09:13:21.655Z,18.42
2023-04-24T09:14:24.869Z,14.48
2023-04-24T09:15:27.771Z,14.63
2023-04-24T09:16:30.884Z,15.10
2023-04-24T09:17:34.399Z,16.35
2023-04-24T09:18:36.682Z,15.27
2023-04-24T09:19:39.048Z,18.50
2023-04-24T09:20:59.530Z,22.38
2023-04-24T09:22:06.288Z,19.30
2023-04-24T09:23:11.232Z,19.20
2023-04-24T09:24:18.907Z,15.82
2023-04-24T09:25:22.754Z,22.15
2023-04-24T09:26:25.360Z,19.98
2023-04-24T09:27:30.077Z,17.50
2023-04-24T09:28:36.065Z,18.15
2023-04-24T09:29:38.281Z,15.57
2023-04-24T09:30:40.533Z,19.38
2023-04-24T09:31:42.842Z,16.13
2023-04-24T09:32:45.495Z,14.57
2023-04-24T09:33:57.736Z,15.05
2023-04-24T09:35:09.682Z,15.77
2023-04-24T09:36:11.890Z,17.58
2023-04-24T09:37:29.025Z,15.25
2023-04-24T09:38:35.592Z,14.80
2023-04-24T09:39:37.880Z,19.83
2023-04-24T09:40:44.280Z,18.60
2023-04-24T09:41:48.082Z,11.95
2023-04-24T09:42:54.945Z,11.43
2023-04-24T09:43:57.785Z,17.38
2023-04-24T09:45:11.822Z,13.80
2023-04-24T09:46:20.059Z,12.23
2023-04-24T09:47:22.400Z,14.48
2023-04-24T09:48:32.829Z,11.98
2023-04-24T09:49:36.076Z,17.05
2023-04-24T09:50:40.947Z,13.05
2023-04-24T09:51:43.873Z,14.95
2023-04-24T09:52:47.431Z,17.13
2023-04-24T09:53:54.019Z,16.05
2023-04-24T09:54:57.106Z,9.50
2023-04-24T09:56:09.314Z,13.02
2023-04-24T09:57:11.708Z,15.55
2023-04-24T09:58:14.028Z,10.60
2023-04-24T09:59:17.529Z,9.63
2023-04-24T10:00:22.987Z,12.40
2023-04-24T10:01:32.081Z,10.45
2023-04-24T10:02:34.560Z,14.68
2023-04-24T10:03:37.256Z,13.68
2023-04-24T10:04:39.701Z,11.63
2023-04-24T10:05:42.125Z,12.68
2023-04-24T10:06:45.274Z,18.17
2023-04-24T10:07:49.566Z,16.02
2023-04-24T10:08:52.495Z,11.43
2023-04-24T10:09:55.303Z,14.85
2023-04-24T10:11:01.338Z,13.63
2023-04-24T10:12:05.743Z,18.77
2023-04-24T10:13:09.001Z,12.23
2023-04-24T10:14:13.154Z,14.27
2023-04-24T10:15:16.536Z,17.70
2023-04-24T10:16:19.715Z,9.75
2023-04-24T10:17:23.011Z,10.98
2023-04-24T10:18:26.342Z,12.77
2023-04-24T10:19:30.700Z,15.43
2023-04-24T10:20:33.423Z,10.07
2023-04-24T10:21:36.708Z,11.10
2023-04-24T10:22:39.241Z,13.07
2023-04-24T10:23:42.743Z,13.30
2023-04-24T10:24:46.356Z,13.02
2023-04-24T10:25:50.733Z,16.48
2023-04-24T10:26:53.515Z,9.95
2023-04-24T10:28:00.972Z,13.38
2023-04-24T10:29:03.452Z,10.63
2023-04-24T10:30:08.084Z,14.65
2023-04-24T10:31:11.630Z,14.02
2023-04-24T10:32:13.843Z,12.02
2023-04-24T10:33:17.071Z,14.40
2023-04-24T10:34:21.878Z,12.25
2023-04-24T10:35:27.826Z,13.77
2023-04-24T10:36:33.933Z,15.18
2023-04-24T10:37:39.265Z,15.45
2023-04-24T10:38:44.600Z,12.00
2023-04-24T10:39:49.527Z,10.50
2023-04-24T10:40:51.685Z,11.05
2023-04-24T10:41:57.579Z,9.63
2023-04-24T10:43:03.188Z,15.98
2023-04-24T10:44:08.599Z,16.30
2023-04-24T10:45:19.103Z,12.90
2023-04-24T10:46:22.722Z,14.10
2023-04-24T10:47:26.254Z,12.80
2023-04-24T10:48:28.627Z,12.45
2023-04-24T10:49:31.648Z,9.70
2023-04-24T10:50:44.946Z,9.38
2023-04-24T10:51:49.344Z,17.25
2023-04-24T10:52:53.701Z,9.18
2023-04-24T10:53:59.012Z,15.13
2023-04-24T10:55:03.159Z,11.52
2023-04-24T10:56:06.833Z,10.15
2023-04-24T10:57:31.032Z,10.02
2023-04-24T10:58:44.273Z,10.25
2023-04-24T10:59:47.069Z,11.98
2023-04-24T11:00:58.339Z,8.65
2023-04-24T11:02:00.550Z,11.45
2023-04-24T11:03:05.506Z,12.40
2023-04-24T11:04:07.918Z,13.73
2023-04-24T11:05:12.017Z,12.48
2023-04-24T11:06:15.125Z,16.60
2023-04-24T11:07:17.326Z,11.48
2023-04-24T11:08:33.741Z,21.52
2023-04-24T11:09:37.478Z,21.73
2023-04-24T11:10:41.355Z,15.82
2023-04-24T11:11:47.344Z,9.80
2023-04-24T11:12:51.830Z,11.85
2023-04-24T11:14:07.635Z,10.55
2023-04-24T11:15:11.952Z,9.25
2023-04-24T11:16:16.171Z,13.25
2023-04-24T11:17:33.073Z,17.23
2023-04-24T11:18:46.341Z,15.27
2023-04-24T11:19:53.566Z,12.15
2023-04-24T11:20:56.720Z,13.93
2023-04-24T11:22:02.476Z,12.77
2023-04-24T11:23:07.733Z,16.98
2023-04-24T11:24:31.773Z,13.85
2023-04-24T11:25:34.166Z,15.23
2023-04-24T11:26:40.082Z,11.60
2023-04-24T11:27:43.685Z,11.25
2023-04-24T11:28:47.292Z,14.30
2023-04-24T11:30:01.897Z,18.25
2023-04-24T11:31:40.723Z,13.40
2023-04-24T11:32:44.078Z,13.80
2023-04-24T11:33:46.403Z,15.88
2023-04-24T11:34:49.778Z,14.05
2023-04-24T11:35:55.181Z,15.00
2023-04-24T11:37:00.547Z,15.00
2023-04-24T11:38:19.372Z,16.05
2023-04-24T11:39:26.812Z,12.73
2023-04-24T11:40:29.212Z,15.30
2023-04-24T11:41:31.783Z,13.07
2023-04-24T11:42:37.500Z,11.55
2023-04-24T11:43:41.693Z,14.25
2023-04-24T11:44:44.925Z,10.63
2023-04-24T11:45:51.358Z,12.18
2023-04-24T11:46:53.778Z,17.17
2023-04-24T11:47:56.018Z,6.82
2023-04-24T11:48:59.121Z,12.00
2023-04-24T11:50:03.391Z,15.82
2023-04-24T11:51:05.873Z,11.65
2023-04-24T11:52:08.356Z,18.25
2023-04-24T11:53:11.108Z,11.32
2023-04-24T11:54:13.454Z,14.65
2023-04-24T11:55:29.907Z,11.90
2023-04-24T11:56:32.306Z,18.52
2023-04-24T11:57:35.570Z,23.88
2023-04-24T11:58:40.733Z,12.35
2023-04-24T11:59:43.725Z,18.38
2023-04-24T12:00:46.803Z,14.35
2023-04-24T12:01:51.417Z,17.55
2023-04-24T12:03:07.655Z,15.25
2023-04-24T12:04:10.301Z,12.07
2023-04-24T12:05:21.334Z,13.88
2023-04-24T12:06:23.737Z,13.20
2023-04-24T12:07:26.214Z,13.98
2023-04-24T12:08:29.681Z,15.52
2023-04-24T12:09:42.875Z,12.25
2023-04-24T12:10:45.018Z,15.13
2023-04-24T12:11:55.624Z,15.90
2023-04-24T12:13:00.707Z,13.98
2023-04-24T12:14:11.982Z,9.52
2023-04-24T12:15:14.124Z,12.77
2023-04-24T12:16:16.484Z,13.63
2023-04-24T12:17:27.880Z,11.30
2023-04-24T12:18:31.133Z,14.45
2023-04-24T12:19:33.219Z,15.32
2023-04-24T12:20:37.167Z,9.73
2023-04-24T12:21:39.269Z,14.40
2023-04-24T12:22:46.803Z,14.05
2023-04-24T12:23:49.465Z,14.48
2023-04-24T12:24:59.778Z,13.18
2023-04-24T12:26:02.644Z,15.45
2023-04-24T12:27:05.043Z,18.65
2023-04-24T12:28:12.232Z,14.23
2023-04-24T12:29:21.688Z,15.95
2023-04-24T12:30:32.549Z,15.27
2023-04-24T12:31:34.790Z,27.90
2023-04-24T12:32:42.805Z,33.08
2023-04-24T12:33:45.462Z,24.30
2023-04-24T12:34:48.338Z,21.15
2023-04-24T12:35:56.571Z,18.27
2023-04-24T12:37:11.258Z,25.67
2023-04-24T12:38:16.677Z,19.15
2023-04-24T12:39:20.516Z,19.17
2023-04-24T12:40:26.332Z,17.88
2023-04-24T12:41:31.675Z,19.65
2023-04-24T12:42:34.272Z,23.60
2023-04-24T12:43:37.058Z,14.70
2023-04-24T12:44:39.226Z,25.20
2023-04-24T12:45:41.410Z,23.17
2023-04-24T12:46:44.655Z,15.30
2023-04-24T12:47:51.377Z,24.42
2023-04-24T12:48:53.702Z,20.23
2023-04-24T12:49:56.430Z,22.17
2023-04-24T12:51:01.714Z,17.90
2023-04-24T12:52:03.839Z,15.82
2023-04-24T12:53:07.009Z,22.42
2023-04-24T12:54:09.333Z,20.92
2023-04-24T12:55:13.129Z,27.65
2023-04-24T12:56:15.460Z,18.60
2023-04-24T12:57:17.968Z,19.67
2023-04-24T12:58:21.184Z,24.67
2023-04-24T12:59:23.592Z,18.65
2023-04-24T13:00:25.824Z,19.17
2023-04-24T13:01:28.364Z,27.73
2023-04-24T13:02:32.392Z,19.02
2023-04-24T13:03:36.667Z,18.88
2023-04-24T13:04:39.221Z,23.08
2023-04-24T13:05:41.764Z,26.15
2023-04-24T13:06:44.118Z,21.35
2023-04-24T13:07:46.412Z,21.13
2023-04-24T13:08:49.558Z,17.75
2023-04-24T13:09:56.650Z,21.80
2023-04-24T13:10:58.960Z,15.45
2023-04-24T13:12:04.389Z,20.65
2023-04-24T13:13:06.734Z,21.05
2023-04-24T13:14:09.205Z,15.15
2023-04-24T13:15:11.896Z,12.10
2023-04-24T13:16:16.451Z,16.63
2023-04-24T13:17:19.175Z,12.30
2023-04-24T13:18:21.914Z,15.85
2023-04-24T13:19:27.979Z,20.98
2023-04-24T13:20:30.410Z,20.05
2023-04-24T13:21:32.986Z,20.80
2023-04-24T13:22:35.364Z,20.70
2023-04-24T13:23:40.829Z,20.10
2023-04-24T13:24:43.378Z,15.13
2023-04-24T13:25:45.573Z,16.45
2023-04-24T13:26:48.092Z,20.08
2023-04-24T13:27:50.462Z,26.80
2023-04-24T13:28:52.686Z,16.70
2023-04-24T13:29:54.941Z,21.38
2023-04-24T13:30:57.215Z,12.77
2023-04-24T13:32:01.788Z,18.67
2023-04-24T13:33:04.404Z,16.15
2023-04-24T13:34:06.930Z,10.88
2023-04-24T13:35:11.179Z,18.08
2023-04-24T13:36:13.422Z,20.25
2023-04-24T13:37:15.629Z,13.93
2023-04-24T13:38:17.825Z,18.10
2023-04-24T13:39:19.952Z,22.15
2023-04-24T13:40:22.230Z,20.73
2023-04-24T13:41:24.455Z,19.02
2023-04-24T13:42:26.665Z,23.67
2023-04-24T13:43:28.853Z,26.60
2023-04-24T13:44:31.050Z,29.52
2023-04-24T13:45:33.227Z,22.67
2023-04-24T13:46:35.877Z,16.80
2023-04-24T13:47:38.299Z,22.15
2023-04-24T13:48:40.711Z,26.27
2023-04-24T13:49:42.986Z,13.38
2023-04-24T13:50:49.626Z,20.38
2023-04-24T13:51:52.111Z,21.83
2023-04-24T13:52:55.248Z,20.05
2023-04-24T13:53:57.502Z,27.90
2023-04-24T13:54:59.652Z,22.70
2023-04-24T13:56:06.869Z,23.17
2023-04-24T13:57:09.211Z,20.55
2023-04-24T13:58:11.595Z,24.27
2023-04-24T13:59:14.448Z,20.85
2023-04-24T14:00:17.653Z,18.20
2023-04-24T14:01:19.905Z,27.55
2023-04-24T14:02:22.096Z,24.65
2023-04-24T14:03:24.386Z,25.98
2023-04-24T14:04:26.901Z,21.27
2023-04-24T14:05:29.192Z,19.45
2023-04-24T14:06:33.145Z,25.63
2023-04-24T14:07:35.348Z,23.17
2023-04-24T14:08:37.451Z,27.63
2023-04-24T14:09:39.643Z,20.30
2023-04-24T14:10:41.934Z,32.35
2023-04-24T14:11:44.202Z,17.35
2023-04-24T14:12:46.470Z,20.55
2023-04-24T14:13:49.104Z,26.70
2023-04-24T14:14:51.389Z,25.45
2023-04-24T14:15:56.069Z,22.20
2023-04-24T14:16:58.591Z,27.02
2023-04-24T14:18:00.907Z,18.48